sensor_id;sensor_type;location;lat;lon;timestamp;P1;durP1;ratioP1;P2;durP2;ratioP2
45694;SDS011;31408;45.468;9.124;2022-10-16T00:01:08;59.08;;;34.28;;
45694;SDS011;31408;45.468;9.124;2022-10-16T00:03:34;64.55;;;35.03;;
45694;SDS011;31408;45.468;9.124;2022-10-16T00:06:00;76.82;;;38.10;;
45694;SDS011;31408;45.468;9.124;2022-10-16T00:08:26;70.95;;;37.83;;
45694;SDS011;31408;45.468;9.124;2022-10-16T00:10:51;67.85;;;39.50;;
45694;SDS011;31408;45.468;9.124;2022-10-16T00:13:16;76.40;;;36.08;;
45694;SDS011;31408;45.468;9.124;2022-10-16T00:15:43;64.00;;;37.90;;
45694;SDS011;31408;45.468;9.124;2022-10-16T00:18:09;71.10;;;35.97;;
45694;SDS011;31408;45.468;9.124;2022-10-16T00:20:34;64.82;;;35.03;;
45694;SDS011;31408;45.468;9.124;2022-10-16T00:23:02;66.88;;;36.05;;
45694;SDS011;31408;45.468;9.124;2022-10-16T00:25:28;63.92;;;37.67;;
45694;SDS011;31408;45.468;9.124;2022-10-16T00:27:53;67.10;;;35.63;;
45694;SDS011;31408;45.468;9.124;2022-10-16T00:30:19;69.63;;;37.65;;
45694;SDS011;31408;45.468;9.124;2022-10-16T00:32:44;72.05;;;37.78;;
45694;SDS011;31408;45.468;9.124;2022-10-16T00:35:09;67.82;;;36.40;;
45694;SDS011;31408;45.468;9.124;2022-10-16T00:37:35;62.65;;;36.08;;
45694;SDS011;31408;45.468;9.124;2022-10-16T00:40:00;65.35;;;35.38;;
45694;SDS011;31408;45.468;9.124;2022-10-16T00:42:25;61.58;;;35.60;;
45694;SDS011;31408;45.468;9.124;2022-10-16T00:44:52;65.15;;;33.00;;
45694;SDS011;31408;45.468;9.124;2022-10-16T00:47:28;67.97;;;38.50;;
45694;SDS011;31408;45.468;9.124;2022-10-16T00:50:02;59.08;;;34.63;;
45694;SDS011;31408;45.468;9.124;2022-10-16T00:52:31;60.78;;;35.22;;
45694;SDS011;31408;45.468;9.124;2022-10-16T00:55:02;69.70;;;36.35;;
45694;SDS011;31408;45.468;9.124;2022-10-16T00:57:29;64.50;;;34.33;;
45694;SDS011;31408;45.468;9.124;2022-10-16T00:59:55;63.38;;;35.40;;
45694;SDS011;31408;45.468;9.124;2022-10-16T01:02:21;61.58;;;35.03;;
45694;SDS011;31408;45.468;9.124;2022-10-16T01:04:50;66.18;;;38.67;;
45694;SDS011;31408;45.468;9.124;2022-10-16T01:09:51;65.07;;;35.15;;
45694;SDS011;31408;45.468;9.124;2022-10-16T01:12:27;64.38;;;33.75;;
45694;SDS011;31408;45.468;9.124;2022-10-16T01:14:58;65.38;;;36.05;;
45694;SDS011;31408;45.468;9.124;2022-10-16T01:17:34;65.65;;;35.85;;
45694;SDS011;31408;45.468;9.124;2022-10-16T01:20:34;58.22;;;34.75;;
45694;SDS011;31408;45.468;9.124;2022-10-16T01:25:25;68.88;;;36.00;;
45694;SDS011;31408;45.468;9.124;2022-10-16T01:27:53;60.80;;;34.85;;
45694;SDS011;31408;45.468;9.124;2022-10-16T01:30:21;57.35;;;32.88;;
45694;SDS011;31408;45.468;9.124;2022-10-16T01:35:44;55.25;;;31.83;;
45694;SDS011;31408;45.468;9.124;2022-10-16T01:38:21;61.85;;;33.33;;
45694;SDS011;31408;45.468;9.124;2022-10-16T01:40:50;62.35;;;33.97;;
45694;SDS011;31408;45.468;9.124;2022-10-16T01:43:20;66.28;;;34.72;;
45694;SDS011;31408;45.468;9.124;2022-10-16T01:45:47;63.70;;;34.75;;
45694;SDS011;31408;45.468;9.124;2022-10-16T01:48:14;59.50;;;33.55;;
45694;SDS011;31408;45.468;9.124;2022-10-16T01:50:41;66.40;;;33.78;;
45694;SDS011;31408;45.468;9.124;2022-10-16T01:53:08;75.60;;;35.42;;
45694;SDS011;31408;45.468;9.124;2022-10-16T01:55:36;60.40;;;33.17;;
45694;SDS011;31408;45.468;9.124;2022-10-16T01:58:03;57.05;;;34.72;;
45694;SDS011;31408;45.468;9.124;2022-10-16T02:00:30;59.72;;;34.20;;
45694;SDS011;31408;45.468;9.124;2022-10-16T02:02:55;53.00;;;32.03;;
45694;SDS011;31408;45.468;9.124;2022-10-16T02:07:56;52.50;;;31.50;;
45694;SDS011;31408;45.468;9.124;2022-10-16T02:10:22;50.38;;;29.42;;
45694;SDS011;31408;45.468;9.124;2022-10-16T02:13:10;54.85;;;31.90;;
45694;SDS011;31408;45.468;9.124;2022-10-16T02:15:34;52.38;;;31.00;;
45694;SDS011;31408;45.468;9.124;2022-10-16T02:18:01;64.00;;;33.63;;
45694;SDS011;31408;45.468;9.124;2022-10-16T02:20:27;62.05;;;32.50;;
45694;SDS011;31408;45.468;9.124;2022-10-16T02:22:53;56.80;;;33.42;;
45694;SDS011;31408;45.468;9.124;2022-10-16T02:25:31;53.92;;;31.75;;
45694;SDS011;31408;45.468;9.124;2022-10-16T02:30:58;61.28;;;33.92;;
45694;SDS011;31408;45.468;9.124;2022-10-16T02:33:24;58.10;;;31.10;;
45694;SDS011;31408;45.468;9.124;2022-10-16T02:35:56;57.53;;;34.50;;
45694;SDS011;31408;45.468;9.124;2022-10-16T02:38:22;57.08;;;33.85;;
45694;SDS011;31408;45.468;9.124;2022-10-16T02:40:48;52.97;;;32.92;;
45694;SDS011;31408;45.468;9.124;2022-10-16T02:43:13;52.78;;;31.70;;
45694;SDS011;31408;45.468;9.124;2022-10-16T02:45:38;55.97;;;31.65;;
45694;SDS011;31408;45.468;9.124;2022-10-16T02:48:04;60.45;;;34.05;;
45694;SDS011;31408;45.468;9.124;2022-10-16T02:50:29;57.72;;;32.13;;
45694;SDS011;31408;45.468;9.124;2022-10-16T02:52:55;64.38;;;34.00;;
45694;SDS011;31408;45.468;9.124;2022-10-16T02:55:25;55.35;;;31.33;;
45694;SDS011;31408;45.468;9.124;2022-10-16T02:57:51;57.00;;;32.85;;
45694;SDS011;31408;45.468;9.124;2022-10-16T03:00:17;60.22;;;33.17;;
45694;SDS011;31408;45.468;9.124;2022-10-16T03:02:42;55.03;;;31.27;;
45694;SDS011;31408;45.468;9.124;2022-10-16T03:05:08;65.65;;;34.35;;
45694;SDS011;31408;45.468;9.124;2022-10-16T03:07:33;59.17;;;33.55;;
45694;SDS011;31408;45.468;9.124;2022-10-16T03:09:59;53.40;;;32.88;;
45694;SDS011;31408;45.468;9.124;2022-10-16T03:12:27;58.45;;;33.20;;
45694;SDS011;31408;45.468;9.124;2022-10-16T03:15:08;60.65;;;33.95;;
45694;SDS011;31408;45.468;9.124;2022-10-16T03:17:33;52.90;;;31.20;;
45694;SDS011;31408;45.468;9.124;2022-10-16T03:19:59;58.47;;;31.95;;
45694;SDS011;31408;45.468;9.124;2022-10-16T03:22:25;60.15;;;32.88;;
45694;SDS011;31408;45.468;9.124;2022-10-16T03:25:00;56.05;;;31.77;;
45694;SDS011;31408;45.468;9.124;2022-10-16T03:27:25;59.58;;;32.85;;
45694;SDS011;31408;45.468;9.124;2022-10-16T03:29:51;57.25;;;31.52;;
45694;SDS011;31408;45.468;9.124;2022-10-16T03:32:16;60.53;;;33.00;;
45694;SDS011;31408;45.468;9.124;2022-10-16T03:34:41;51.75;;;28.42;;
45694;SDS011;31408;45.468;9.124;2022-10-16T03:37:08;48.75;;;29.27;;
45694;SDS011;31408;45.468;9.124;2022-10-16T03:39:33;47.63;;;27.88;;
45694;SDS011;31408;45.468;9.124;2022-10-16T03:41:58;48.33;;;28.33;;
45694;SDS011;31408;45.468;9.124;2022-10-16T03:44:24;48.80;;;28.67;;
45694;SDS011;31408;45.468;9.124;2022-10-16T03:46:54;53.35;;;31.65;;
45694;SDS011;31408;45.468;9.124;2022-10-16T03:49:19;54.55;;;28.98;;
45694;SDS011;31408;45.468;9.124;2022-10-16T03:51:44;48.08;;;28.50;;
45694;SDS011;31408;45.468;9.124;2022-10-16T03:54:10;50.47;;;29.63;;
45694;SDS011;31408;45.468;9.124;2022-10-16T03:56:35;47.85;;;26.58;;
45694;SDS011;31408;45.468;9.124;2022-10-16T03:59:01;45.67;;;25.20;;
45694;SDS011;31408;45.468;9.124;2022-10-16T04:01:26;47.15;;;25.35;;
45694;SDS011;31408;45.468;9.124;2022-10-16T04:03:51;46.35;;;26.63;;
45694;SDS011;31408;45.468;9.124;2022-10-16T04:06:22;48.13;;;29.80;;
45694;SDS011;31408;45.468;9.124;2022-10-16T04:08:47;44.63;;;26.20;;
45694;SDS011;31408;45.468;9.124;2022-10-16T04:11:12;48.25;;;27.17;;
45694;SDS011;31408;45.468;9.124;2022-10-16T04:13:38;47.30;;;26.58;;
45694;SDS011;31408;45.468;9.124;2022-10-16T04:16:03;49.85;;;26.25;;
45694;SDS011;31408;45.468;9.124;2022-10-16T04:18:28;46.95;;;25.80;;
45694;SDS011;31408;45.468;9.124;2022-10-16T04:20:54;51.97;;;28.42;;
45694;SDS011;31408;45.468;9.124;2022-10-16T04:23:19;49.05;;;25.90;;
45694;SDS011;31408;45.468;9.124;2022-10-16T04:25:44;45.58;;;24.90;;
45694;SDS011;31408;45.468;9.124;2022-10-16T04:28:10;47.75;;;26.65;;
45694;SDS011;31408;45.468;9.124;2022-10-16T04:30:37;43.85;;;26.83;;
45694;SDS011;31408;45.468;9.124;2022-10-16T04:33:02;46.72;;;25.77;;
45694;SDS011;31408;45.468;9.124;2022-10-16T04:35:28;43.70;;;23.73;;
45694;SDS011;31408;45.468;9.124;2022-10-16T04:37:53;45.05;;;25.50;;
45694;SDS011;31408;45.468;9.124;2022-10-16T04:40:18;47.92;;;26.27;;
45694;SDS011;31408;45.468;9.124;2022-10-16T04:42:44;42.78;;;24.48;;
45694;SDS011;31408;45.468;9.124;2022-10-16T04:45:09;46.20;;;24.45;;
45694;SDS011;31408;45.468;9.124;2022-10-16T04:47:35;44.50;;;25.67;;
45694;SDS011;31408;45.468;9.124;2022-10-16T04:50:00;40.45;;;22.92;;
45694;SDS011;31408;45.468;9.124;2022-10-16T04:52:27;43.85;;;24.50;;
45694;SDS011;31408;45.468;9.124;2022-10-16T04:54:53;44.33;;;23.60;;
45694;SDS011;31408;45.468;9.124;2022-10-16T04:57:19;42.65;;;24.88;;
45694;SDS011;31408;45.468;9.124;2022-10-16T04:59:44;42.97;;;23.60;;
45694;SDS011;31408;45.468;9.124;2022-10-16T05:02:09;43.08;;;22.30;;
45694;SDS011;31408;45.468;9.124;2022-10-16T05:04:35;37.33;;;20.98;;
45694;SDS011;31408;45.468;9.124;2022-10-16T05:07:00;40.90;;;23.17;;
45694;SDS011;31408;45.468;9.124;2022-10-16T05:09:27;42.00;;;22.65;;
45694;SDS011;31408;45.468;9.124;2022-10-16T05:11:52;41.95;;;23.23;;
45694;SDS011;31408;45.468;9.124;2022-10-16T05:14:17;42.00;;;23.83;;
45694;SDS011;31408;45.468;9.124;2022-10-16T05:16:43;41.30;;;24.40;;
45694;SDS011;31408;45.468;9.124;2022-10-16T05:19:08;42.63;;;23.80;;
45694;SDS011;31408;45.468;9.124;2022-10-16T05:21:33;40.25;;;23.13;;
45694;SDS011;31408;45.468;9.124;2022-10-16T05:23:59;40.88;;;23.48;;
45694;SDS011;31408;45.468;9.124;2022-10-16T05:26:24;44.03;;;24.02;;
45694;SDS011;31408;45.468;9.124;2022-10-16T05:28:49;40.45;;;23.38;;
45694;SDS011;31408;45.468;9.124;2022-10-16T05:31:15;39.63;;;23.52;;
45694;SDS011;31408;45.468;9.124;2022-10-16T05:33:40;36.15;;;22.48;;
45694;SDS011;31408;45.468;9.124;2022-10-16T05:36:11;39.90;;;22.85;;
45694;SDS011;31408;45.468;9.124;2022-10-16T05:38:37;43.17;;;23.77;;
45694;SDS011;31408;45.468;9.124;2022-10-16T05:41:02;44.50;;;22.83;;
45694;SDS011;31408;45.468;9.124;2022-10-16T05:43:28;39.97;;;22.92;;
45694;SDS011;31408;45.468;9.124;2022-10-16T05:46:04;41.38;;;21.92;;
45694;SDS011;31408;45.468;9.124;2022-10-16T05:48:29;39.20;;;23.27;;
45694;SDS011;31408;45.468;9.124;2022-10-16T05:50:58;44.65;;;24.33;;
45694;SDS011;31408;45.468;9.124;2022-10-16T05:53:23;39.47;;;24.27;;
45694;SDS011;31408;45.468;9.124;2022-10-16T05:55:54;41.30;;;23.20;;
45694;SDS011;31408;45.468;9.124;2022-10-16T05:58:20;40.72;;;23.98;;
45694;SDS011;31408;45.468;9.124;2022-10-16T06:00:52;37.70;;;23.02;;
45694;SDS011;31408;45.468;9.124;2022-10-16T06:03:17;38.53;;;21.75;;
45694;SDS011;31408;45.468;9.124;2022-10-16T06:05:42;43.67;;;24.38;;
45694;SDS011;31408;45.468;9.124;2022-10-16T06:08:08;42.40;;;24.13;;
45694;SDS011;31408;45.468;9.124;2022-10-16T06:10:33;44.38;;;25.23;;
45694;SDS011;31408;45.468;9.124;2022-10-16T06:12:58;39.33;;;22.08;;
45694;SDS011;31408;45.468;9.124;2022-10-16T06:15:29;39.08;;;21.38;;
45694;SDS011;31408;45.468;9.124;2022-10-16T06:17:54;39.55;;;22.13;;
45694;SDS011;31408;45.468;9.124;2022-10-16T06:20:20;40.90;;;22.67;;
45694;SDS011;31408;45.468;9.124;2022-10-16T06:22:45;36.65;;;21.33;;
45694;SDS011;31408;45.468;9.124;2022-10-16T06:25:10;37.28;;;20.27;;
45694;SDS011;31408;45.468;9.124;2022-10-16T06:27:36;38.88;;;21.25;;
45694;SDS011;31408;45.468;9.124;2022-10-16T06:30:01;36.80;;;21.23;;
45694;SDS011;31408;45.468;9.124;2022-10-16T06:32:28;33.88;;;18.95;;
45694;SDS011;31408;45.468;9.124;2022-10-16T06:34:54;33.45;;;18.67;;
45694;SDS011;31408;45.468;9.124;2022-10-16T06:37:19;42.72;;;20.88;;
45694;SDS011;31408;45.468;9.124;2022-10-16T06:39:44;35.53;;;19.50;;
45694;SDS011;31408;45.468;9.124;2022-10-16T06:42:10;37.25;;;18.75;;
45694;SDS011;31408;45.468;9.124;2022-10-16T06:44:35;37.53;;;19.88;;
45694;SDS011;31408;45.468;9.124;2022-10-16T06:47:00;38.35;;;19.83;;
45694;SDS011;31408;45.468;9.124;2022-10-16T06:49:26;37.90;;;21.15;;
45694;SDS011;31408;45.468;9.124;2022-10-16T06:51:51;40.10;;;20.42;;
45694;SDS011;31408;45.468;9.124;2022-10-16T06:54:16;37.55;;;21.33;;
45694;SDS011;31408;45.468;9.124;2022-10-16T06:56:42;36.65;;;22.13;;
45694;SDS011;31408;45.468;9.124;2022-10-16T06:59:08;35.78;;;21.38;;
45694;SDS011;31408;45.468;9.124;2022-10-16T07:01:33;33.83;;;20.13;;
45694;SDS011;31408;45.468;9.124;2022-10-16T07:03:59;37.50;;;22.10;;
45694;SDS011;31408;45.468;9.124;2022-10-16T07:06:31;38.55;;;20.58;;
45694;SDS011;31408;45.468;9.124;2022-10-16T07:08:56;40.90;;;19.85;;
45694;SDS011;31408;45.468;9.124;2022-10-16T07:11:22;38.97;;;21.60;;
45694;SDS011;31408;45.468;9.124;2022-10-16T07:13:48;34.90;;;19.77;;
45694;SDS011;31408;45.468;9.124;2022-10-16T07:16:15;35.05;;;19.50;;
45694;SDS011;31408;45.468;9.124;2022-10-16T07:18:40;35.45;;;18.17;;
45694;SDS011;31408;45.468;9.124;2022-10-16T07:21:08;36.45;;;19.50;;
45694;SDS011;31408;45.468;9.124;2022-10-16T07:23:34;34.28;;;18.90;;
45694;SDS011;31408;45.468;9.124;2022-10-16T07:26:10;36.35;;;20.42;;
45694;SDS011;31408;45.468;9.124;2022-10-16T07:28:35;38.40;;;18.75;;
45694;SDS011;31408;45.468;9.124;2022-10-16T07:31:02;35.90;;;20.05;;
45694;SDS011;31408;45.468;9.124;2022-10-16T07:33:27;32.25;;;18.70;;
45694;SDS011;31408;45.468;9.124;2022-10-16T07:35:58;31.88;;;18.02;;
45694;SDS011;31408;45.468;9.124;2022-10-16T07:38:23;34.58;;;18.80;;
45694;SDS011;31408;45.468;9.124;2022-10-16T07:40:55;36.35;;;20.08;;
45694;SDS011;31408;45.468;9.124;2022-10-16T07:43:20;34.83;;;19.75;;
45694;SDS011;31408;45.468;9.124;2022-10-16T07:45:46;35.53;;;19.15;;
45694;SDS011;31408;45.468;9.124;2022-10-16T07:48:12;38.67;;;21.88;;
45694;SDS011;31408;45.468;9.124;2022-10-16T07:50:37;36.47;;;19.58;;
45694;SDS011;31408;45.468;9.124;2022-10-16T07:53:03;38.75;;;19.00;;
45694;SDS011;31408;45.468;9.124;2022-10-16T07:55:28;36.65;;;20.02;;
45694;SDS011;31408;45.468;9.124;2022-10-16T07:57:54;34.15;;;18.98;;
45694;SDS011;31408;45.468;9.124;2022-10-16T08:00:19;35.58;;;19.83;;
45694;SDS011;31408;45.468;9.124;2022-10-16T08:02:45;44.10;;;20.77;;
45694;SDS011;31408;45.468;9.124;2022-10-16T08:05:10;34.95;;;19.58;;
45694;SDS011;31408;45.468;9.124;2022-10-16T08:07:36;41.10;;;20.98;;
45694;SDS011;31408;45.468;9.124;2022-10-16T08:10:01;37.03;;;19.65;;
45694;SDS011;31408;45.468;9.124;2022-10-16T08:12:27;38.22;;;20.40;;
45694;SDS011;31408;45.468;9.124;2022-10-16T08:14:52;37.83;;;20.70;;
45694;SDS011;31408;45.468;9.124;2022-10-16T08:17:17;41.45;;;21.52;;
45694;SDS011;31408;45.468;9.124;2022-10-16T08:19:46;37.97;;;20.40;;
45694;SDS011;31408;45.468;9.124;2022-10-16T08:22:12;38.50;;;20.40;;
45694;SDS011;31408;45.468;9.124;2022-10-16T08:24:38;39.95;;;23.65;;
45694;SDS011;31408;45.468;9.124;2022-10-16T08:27:03;38.95;;;21.05;;
45694;SDS011;31408;45.468;9.124;2022-10-16T08:29:29;38.75;;;21.50;;
45694;SDS011;31408;45.468;9.124;2022-10-16T08:31:54;37.22;;;20.55;;
45694;SDS011;31408;45.468;9.124;2022-10-16T08:34:19;39.47;;;23.05;;
45694;SDS011;31408;45.468;9.124;2022-10-16T08:36:45;50.90;;;29.08;;
45694;SDS011;31408;45.468;9.124;2022-10-16T08:39:10;50.60;;;27.50;;
45694;SDS011;31408;45.468;9.124;2022-10-16T08:49:26;48.85;;;26.60;;
45694;SDS011;31408;45.468;9.124;2022-10-16T08:51:52;48.80;;;25.92;;
45694;SDS011;31408;45.468;9.124;2022-10-16T08:54:22;50.42;;;27.30;;
45694;SDS011;31408;45.468;9.124;2022-10-16T08:59:16;53.10;;;27.42;;
45694;SDS011;31408;45.468;9.124;2022-10-16T09:01:45;51.05;;;26.50;;
45694;SDS011;31408;45.468;9.124;2022-10-16T09:06:57;41.78;;;24.42;;
45694;SDS011;31408;45.468;9.124;2022-10-16T09:11:59;47.75;;;26.63;;
45694;SDS011;31408;45.468;9.124;2022-10-16T09:17:28;52.33;;;26.67;;
45694;SDS011;31408;45.468;9.124;2022-10-16T09:22:27;44.80;;;26.10;;
45694;SDS011;31408;45.468;9.124;2022-10-16T09:24:53;50.78;;;25.65;;
45694;SDS011;31408;45.468;9.124;2022-10-16T09:27:19;48.72;;;27.13;;
45694;SDS011;31408;45.468;9.124;2022-10-16T09:29:45;47.67;;;26.95;;
45694;SDS011;31408;45.468;9.124;2022-10-16T09:32:14;52.60;;;27.02;;
45694;SDS011;31408;45.468;9.124;2022-10-16T09:34:43;48.53;;;26.63;;
45694;SDS011;31408;45.468;9.124;2022-10-16T09:37:14;48.35;;;26.33;;
45694;SDS011;31408;45.468;9.124;2022-10-16T09:39:46;47.53;;;26.30;;
45694;SDS011;31408;45.468;9.124;2022-10-16T09:42:54;55.58;;;32.05;;
45694;SDS011;31408;45.468;9.124;2022-10-16T09:45:00;54.55;;;27.38;;
45694;SDS011;31408;45.468;9.124;2022-10-16T09:47:26;50.40;;;27.05;;
45694;SDS011;31408;45.468;9.124;2022-10-16T09:52:18;51.22;;;28.30;;
45694;SDS011;31408;45.468;9.124;2022-10-16T09:55:00;50.90;;;29.00;;
45694;SDS011;31408;45.468;9.124;2022-10-16T09:57:26;52.22;;;28.63;;
45694;SDS011;31408;45.468;9.124;2022-10-16T09:59:53;63.00;;;31.58;;
45694;SDS011;31408;45.468;9.124;2022-10-16T10:02:20;62.15;;;32.47;;
45694;SDS011;31408;45.468;9.124;2022-10-16T10:04:58;54.33;;;29.60;;
45694;SDS011;31408;45.468;9.124;2022-10-16T10:07:27;53.55;;;30.65;;
45694;SDS011;31408;45.468;9.124;2022-10-16T10:09:53;52.50;;;30.02;;
45694;SDS011;31408;45.468;9.124;2022-10-16T10:14:49;49.42;;;28.00;;
45694;SDS011;31408;45.468;9.124;2022-10-16T10:17:18;55.92;;;28.70;;
45694;SDS011;31408;45.468;9.124;2022-10-16T10:19:46;50.83;;;27.27;;
45694;SDS011;31408;45.468;9.124;2022-10-16T10:25:00;58.47;;;28.83;;
45694;SDS011;31408;45.468;9.124;2022-10-16T10:27:38;59.53;;;31.48;;
45694;SDS011;31408;45.468;9.124;2022-10-16T10:30:10;54.67;;;32.00;;
45694;SDS011;31408;45.468;9.124;2022-10-16T10:33:00;57.72;;;29.45;;
45694;SDS011;31408;45.468;9.124;2022-10-16T10:35:42;49.17;;;28.15;;
45694;SDS011;31408;45.468;9.124;2022-10-16T10:38:32;52.30;;;27.90;;
45694;SDS011;31408;45.468;9.124;2022-10-16T10:40:58;58.95;;;32.75;;
45694;SDS011;31408;45.468;9.124;2022-10-16T10:43:35;52.88;;;28.20;;
45694;SDS011;31408;45.468;9.124;2022-10-16T10:46:13;49.22;;;27.90;;
45694;SDS011;31408;45.468;9.124;2022-10-16T10:51:11;53.17;;;29.73;;
45694;SDS011;31408;45.468;9.124;2022-10-16T11:01:10;59.13;;;32.25;;
45694;SDS011;31408;45.468;9.124;2022-10-16T11:04:21;60.30;;;31.08;;
45694;SDS011;31408;45.468;9.124;2022-10-16T11:09:21;65.70;;;32.65;;
45694;SDS011;31408;45.468;9.124;2022-10-16T11:11:50;62.75;;;34.47;;
45694;SDS011;31408;45.468;9.124;2022-10-16T11:14:28;57.83;;;31.92;;
45694;SDS011;31408;45.468;9.124;2022-10-16T11:16:56;66.85;;;36.92;;
45694;SDS011;31408;45.468;9.124;2022-10-16T11:22:06;56.22;;;28.02;;
45694;SDS011;31408;45.468;9.124;2022-10-16T11:27:31;58.50;;;34.10;;
45694;SDS011;31408;45.468;9.124;2022-10-16T11:29:59;63.47;;;35.35;;
45694;SDS011;31408;45.468;9.124;2022-10-16T11:32:31;61.33;;;31.30;;
45694;SDS011;31408;45.468;9.124;2022-10-16T11:35:14;55.20;;;32.90;;
45694;SDS011;31408;45.468;9.124;2022-10-16T11:37:43;45.75;;;23.83;;
45694;SDS011;31408;45.468;9.124;2022-10-16T11:40:28;48.28;;;26.20;;
45694;SDS011;31408;45.468;9.124;2022-10-16T11:43:04;40.75;;;22.38;;
45694;SDS011;31408;45.468;9.124;2022-10-16T11:45:36;47.83;;;25.33;;
45694;SDS011;31408;45.468;9.124;2022-10-16T11:53:14;44.50;;;24.15;;
45694;SDS011;31408;45.468;9.124;2022-10-16T11:55:42;56.33;;;28.23;;
45694;SDS011;31408;45.468;9.124;2022-10-16T11:58:12;54.50;;;31.70;;
45694;SDS011;31408;45.468;9.124;2022-10-16T12:00:52;61.42;;;33.80;;
45694;SDS011;31408;45.468;9.124;2022-10-16T12:03:22;58.88;;;32.17;;
45694;SDS011;31408;45.468;9.124;2022-10-16T12:08:25;57.28;;;29.60;;
45694;SDS011;31408;45.468;9.124;2022-10-16T12:10:51;62.65;;;32.08;;
45694;SDS011;31408;45.468;9.124;2022-10-16T12:15:52;60.75;;;33.22;;
45694;SDS011;31408;45.468;9.124;2022-10-16T12:18:28;63.30;;;33.10;;
45694;SDS011;31408;45.468;9.124;2022-10-16T12:20:55;63.03;;;34.95;;
45694;SDS011;31408;45.468;9.124;2022-10-16T12:23:24;51.17;;;32.47;;
45694;SDS011;31408;45.468;9.124;2022-10-16T12:25:54;57.30;;;34.08;;
45694;SDS011;31408;45.468;9.124;2022-10-16T12:28:20;61.33;;;33.45;;
45694;SDS011;31408;45.468;9.124;2022-10-16T12:30:53;61.50;;;34.95;;
45694;SDS011;31408;45.468;9.124;2022-10-16T12:33:23;64.25;;;34.65;;
45694;SDS011;31408;45.468;9.124;2022-10-16T12:36:00;62.67;;;34.97;;
45694;SDS011;31408;45.468;9.124;2022-10-16T12:38:31;66.88;;;37.40;;
45694;SDS011;31408;45.468;9.124;2022-10-16T12:41:01;59.70;;;32.53;;
45694;SDS011;31408;45.468;9.124;2022-10-16T12:43:34;60.00;;;32.65;;
45694;SDS011;31408;45.468;9.124;2022-10-16T12:48:34;57.78;;;34.33;;
45694;SDS011;31408;45.468;9.124;2022-10-16T12:51:21;60.00;;;35.90;;
45694;SDS011;31408;45.468;9.124;2022-10-16T12:53:57;61.53;;;35.58;;
45694;SDS011;31408;45.468;9.124;2022-10-16T12:56:36;52.28;;;31.73;;
45694;SDS011;31408;45.468;9.124;2022-10-16T12:59:13;48.58;;;30.33;;
45694;SDS011;31408;45.468;9.124;2022-10-16T13:04:38;47.08;;;23.10;;
45694;SDS011;31408;45.468;9.124;2022-10-16T13:12:37;44.33;;;24.98;;
45694;SDS011;31408;45.468;9.124;2022-10-16T13:15:11;40.00;;;22.13;;
45694;SDS011;31408;45.468;9.124;2022-10-16T13:20:16;47.25;;;26.98;;
45694;SDS011;31408;45.468;9.124;2022-10-16T13:22:48;37.15;;;20.73;;
45694;SDS011;31408;45.468;9.124;2022-10-16T13:28:00;44.40;;;22.15;;
45694;SDS011;31408;45.468;9.124;2022-10-16T13:30:30;50.15;;;25.98;;
45694;SDS011;31408;45.468;9.124;2022-10-16T13:33:00;48.58;;;26.33;;
45694;SDS011;31408;45.468;9.124;2022-10-16T13:35:27;43.75;;;25.40;;
45694;SDS011;31408;45.468;9.124;2022-10-16T13:38:03;49.65;;;26.40;;
45694;SDS011;31408;45.468;9.124;2022-10-16T13:40:28;52.88;;;27.98;;
45694;SDS011;31408;45.468;9.124;2022-10-16T13:42:53;48.80;;;25.50;;
45694;SDS011;31408;45.468;9.124;2022-10-16T13:45:23;45.90;;;24.52;;
45694;SDS011;31408;45.468;9.124;2022-10-16T13:47:50;45.50;;;25.10;;
45694;SDS011;31408;45.468;9.124;2022-10-16T13:50:25;45.20;;;26.35;;
45694;SDS011;31408;45.468;9.124;2022-10-16T13:52:51;47.65;;;24.83;;
45694;SDS011;31408;45.468;9.124;2022-10-16T13:55:17;37.10;;;19.73;;
45694;SDS011;31408;45.468;9.124;2022-10-16T13:57:43;45.20;;;24.50;;
45694;SDS011;31408;45.468;9.124;2022-10-16T14:02:43;43.80;;;24.58;;
45694;SDS011;31408;45.468;9.124;2022-10-16T14:05:09;43.72;;;23.15;;
45694;SDS011;31408;45.468;9.124;2022-10-16T14:07:35;47.25;;;26.20;;
45694;SDS011;31408;45.468;9.124;2022-10-16T14:10:03;48.83;;;26.98;;
45694;SDS011;31408;45.468;9.124;2022-10-16T14:12:29;46.22;;;25.70;;
45694;SDS011;31408;45.468;9.124;2022-10-16T14:14:55;45.22;;;24.60;;
45694;SDS011;31408;45.468;9.124;2022-10-16T14:17:23;39.08;;;21.70;;
45694;SDS011;31408;45.468;9.124;2022-10-16T14:19:50;35.47;;;19.08;;
45694;SDS011;31408;45.468;9.124;2022-10-16T14:22:29;44.58;;;23.23;;
45694;SDS011;31408;45.468;9.124;2022-10-16T14:24:55;41.30;;;19.50;;
45694;SDS011;31408;45.468;9.124;2022-10-16T14:27:29;36.65;;;22.52;;
45694;SDS011;31408;45.468;9.124;2022-10-16T14:32:40;36.92;;;20.38;;
45694;SDS011;31408;45.468;9.124;2022-10-16T14:37:51;46.97;;;25.60;;
45694;SDS011;31408;45.468;9.124;2022-10-16T14:40:17;44.25;;;24.13;;
45694;SDS011;31408;45.468;9.124;2022-10-16T14:42:43;49.38;;;28.00;;
45694;SDS011;31408;45.468;9.124;2022-10-16T14:45:20;53.28;;;29.70;;
45694;SDS011;31408;45.468;9.124;2022-10-16T14:47:50;50.83;;;30.15;;
45694;SDS011;31408;45.468;9.124;2022-10-16T14:50:16;53.33;;;29.23;;
45694;SDS011;31408;45.468;9.124;2022-10-16T14:52:42;52.35;;;26.40;;
45694;SDS011;31408;45.468;9.124;2022-10-16T14:55:09;48.67;;;27.35;;
45694;SDS011;31408;45.468;9.124;2022-10-16T14:57:34;45.10;;;26.85;;
45694;SDS011;31408;45.468;9.124;2022-10-16T15:00:01;53.47;;;28.95;;
45694;SDS011;31408;45.468;9.124;2022-10-16T15:04:51;48.85;;;27.92;;
45694;SDS011;31408;45.468;9.124;2022-10-16T15:07:17;49.45;;;28.27;;
45694;SDS011;31408;45.468;9.124;2022-10-16T15:09:42;48.15;;;28.30;;
45694;SDS011;31408;45.468;9.124;2022-10-16T15:12:07;45.53;;;25.00;;
45694;SDS011;31408;45.468;9.124;2022-10-16T15:14:33;39.05;;;19.88;;
45694;SDS011;31408;45.468;9.124;2022-10-16T15:16:58;40.28;;;21.58;;
45694;SDS011;31408;45.468;9.124;2022-10-16T15:19:23;36.25;;;19.98;;
45694;SDS011;31408;45.468;9.124;2022-10-16T15:21:49;42.40;;;23.95;;
45694;SDS011;31408;45.468;9.124;2022-10-16T15:24:14;44.80;;;24.80;;
45694;SDS011;31408;45.468;9.124;2022-10-16T15:26:40;44.03;;;22.30;;
45694;SDS011;31408;45.468;9.124;2022-10-16T15:29:05;45.58;;;23.55;;
45694;SDS011;31408;45.468;9.124;2022-10-16T15:31:31;41.88;;;23.27;;
45694;SDS011;31408;45.468;9.124;2022-10-16T15:33:56;43.30;;;22.92;;
45694;SDS011;31408;45.468;9.124;2022-10-16T15:36:27;43.83;;;25.90;;
45694;SDS011;31408;45.468;9.124;2022-10-16T15:38:53;43.05;;;24.33;;
45694;SDS011;31408;45.468;9.124;2022-10-16T15:41:18;46.20;;;23.80;;
45694;SDS011;31408;45.468;9.124;2022-10-16T15:43:44;44.00;;;23.48;;
45694;SDS011;31408;45.468;9.124;2022-10-16T15:46:10;44.75;;;23.60;;
45694;SDS011;31408;45.468;9.124;2022-10-16T15:48:36;42.22;;;23.13;;
45694;SDS011;31408;45.468;9.124;2022-10-16T15:51:04;40.40;;;23.60;;
45694;SDS011;31408;45.468;9.124;2022-10-16T15:53:30;42.15;;;23.88;;
45694;SDS011;31408;45.468;9.124;2022-10-16T15:55:55;41.20;;;23.38;;
45694;SDS011;31408;45.468;9.124;2022-10-16T15:58:20;40.55;;;23.50;;
45694;SDS011;31408;45.468;9.124;2022-10-16T16:00:53;38.08;;;22.02;;
45694;SDS011;31408;45.468;9.124;2022-10-16T16:03:18;48.10;;;26.48;;